createdAt,value
2019-04-16T00:03:01.472Z,99.90
2019-04-16T00:08:10.075Z,99.90
2019-04-16T00:13:22.136Z,99.90
2019-04-16T00:18:19.548Z,99.90
2019-04-16T00:23:21.431Z,99.90
2019-04-16T00:28:17.346Z,99.90
2019-04-16T00:33:13.067Z,99.90
2019-04-16T00:38:08.782Z,99.90
2019-04-16T00:43:08.344Z,99.90
2019-04-16T00:48:07.575Z,99.90
2019-04-16T00:53:08.249Z,99.90
2019-04-16T00:58:03.573Z,99.90
2019-04-16T01:02:59.236Z,99.90
2019-04-16T01:07:55.194Z,99.90
2019-04-16T01:12:50.865Z,99.90
2019-04-16T01:17:47.560Z,99.90
2019-04-16T01:22:46.768Z,99.90
2019-04-16T01:27:46.122Z,99.90
2019-04-16T01:33:06.589Z,99.90
2019-04-16T01:38:29.206Z,99.90
2019-04-16T01:43:25.779Z,99.90
2019-04-16T01:48:23.152Z,99.90
2019-04-16T01:53:21.081Z,99.90
2019-04-16T01:58:17.660Z,99.90
2019-04-16T02:03:17.542Z,99.90
2019-04-16T02:08:10.612Z,99.90
2019-04-16T02:13:06.286Z,99.90
2019-04-16T02:18:03.476Z,99.90
2019-04-16T02:23:02.235Z,99.90
2019-04-16T02:27:57.987Z,99.90
2019-04-16T02:32:53.636Z,99.90
2019-04-16T02:37:49.262Z,99.90
2019-04-16T02:42:44.909Z,99.90
2019-04-16T02:47:42.322Z,99.90
2019-04-16T02:52:55.637Z,99.90
2019-04-16T02:58:15.997Z,99.90
2019-04-16T03:03:16.020Z,99.90
2019-04-16T03:08:11.675Z,99.90
2019-04-16T03:13:07.299Z,99.90
2019-04-16T03:18:02.980Z,99.90
2019-04-16T03:22:58.650Z,99.90
2019-04-16T03:27:55.048Z,99.90
2019-04-16T03:32:51.390Z,99.90
2019-04-16T03:37:47.009Z,99.90
2019-04-16T03:42:42.679Z,99.90
2019-04-16T03:47:39.356Z,99.90
2019-04-16T03:52:37.524Z,99.90
2019-04-16T03:57:33.136Z,99.90
2019-04-16T04:02:29.633Z,99.90
2019-04-16T04:07:25.250Z,99.90
2019-04-16T04:12:20.877Z,99.90
2019-04-16T04:17:16.520Z,99.90
2019-04-16T04:22:12.236Z,99.90
2019-04-16T04:27:13.072Z,99.90
2019-04-16T04:32:05.115Z,99.90
2019-04-16T04:37:00.767Z,99.90
2019-04-16T04:41:57.216Z,99.90
2019-04-16T04:46:52.951Z,99.90
2019-04-16T04:51:48.645Z,99.90
2019-04-16T04:56:44.285Z,99.90
2019-04-16T05:01:42.075Z,99.90
2019-04-16T05:06:38.444Z,99.90
2019-04-16T05:11:34.049Z,99.90
2019-04-16T05:16:31.484Z,99.90
2019-04-16T05:21:28.326Z,99.90
2019-04-16T05:26:24.029Z,99.90
2019-04-16T05:31:24.654Z,99.90
2019-04-16T05:36:17.044Z,99.90
2019-04-16T05:41:17.002Z,99.90
2019-04-16T05:46:10.011Z,99.90
2019-04-16T05:51:08.060Z,99.90
2019-04-16T05:56:28.640Z,99.90
2019-04-16T06:01:50.592Z,99.90
2019-04-16T06:06:46.306Z,99.90
2019-04-16T06:11:42.010Z,99.90
2019-04-16T06:17:14.498Z,99.90
2019-04-16T06:22:28.342Z,99.90
2019-04-16T06:27:46.697Z,99.90
2019-04-16T06:32:47.097Z,99.90
2019-04-16T06:37:58.973Z,99.90
2019-04-16T06:43:02.678Z,99.90
2019-04-16T06:48:02.464Z,99.90
2019-04-16T06:53:15.385Z,99.90
2019-04-16T06:58:22.304Z,99.90
2019-04-16T07:03:35.494Z,98.80
2019-04-16T07:08:41.986Z,96.40
2019-04-16T07:13:41.969Z,95.10
2019-04-16T07:18:35.605Z,91.70
2019-04-16T07:23:32.787Z,92.40
2019-04-16T07:28:59.020Z,91.80
2019-04-16T07:34:10.768Z,91.20
2019-04-16T07:39:36.867Z,87.50
2019-04-16T07:44:54.890Z,90.20
2019-04-16T07:50:11.204Z,85.80
2019-04-16T07:55:28.694Z,83.10
2019-04-16T08:00:24.857Z,83.40
2019-04-16T08:05:20.582Z,77.80
2019-04-16T08:10:17.370Z,76.80
2019-04-16T08:15:15.264Z,72.70
2019-04-16T08:20:11.571Z,73.00
2019-04-16T08:25:07.450Z,72.70
2019-04-16T08:30:04.311Z,71.60
2019-04-16T08:35:01.967Z,67.90
2019-04-16T08:39:57.715Z,67.30
2019-04-16T08:44:53.383Z,64.40
2019-04-16T08:49:53.623Z,63.50
2019-04-16T08:54:50.038Z,88.80
2019-04-16T08:59:43.815Z,63.50
2019-04-16T09:04:39.420Z,61.40
2019-04-16T09:09:41.079Z,62.30
2019-04-16T09:14:41.246Z,60.50
2019-04-16T09:19:37.744Z,60.20
2019-04-16T09:24:40.468Z,57.70
2019-04-16T09:29:52.125Z,56.90
2019-04-16T09:35:09.759Z,55.80
2019-04-16T09:40:19.933Z,55.20
2019-04-16T09:45:18.951Z,53.80
2019-04-16T09:50:14.740Z,53.80
2019-04-16T09:55:10.473Z,53.50
2019-04-16T10:00:11.025Z,51.70
2019-04-16T10:05:07.180Z,51.20
2019-04-16T10:10:04.456Z,53.40
2019-04-16T10:15:00.176Z,50.50
2019-04-16T10:19:55.992Z,50.70
2019-04-16T10:25:11.766Z,50.80
2019-04-16T10:30:32.026Z,50.80
2019-04-16T10:35:27.844Z,49.80
2019-04-16T10:40:41.368Z,50.70
2019-04-16T10:45:55.923Z,48.60
2019-04-16T10:51:15.259Z,48.70
2019-04-16T10:56:25.148Z,48.30
2019-04-16T11:01:31.398Z,46.40
2019-04-16T11:06:34.285Z,43.20
2019-04-16T11:11:29.995Z,43.90
2019-04-16T11:16:25.801Z,42.10
2019-04-16T11:21:22.864Z,41.00
2019-04-16T11:26:18.611Z,40.20
2019-04-16T11:31:17.874Z,39.50
2019-04-16T11:36:19.812Z,39.80
2019-04-16T11:41:11.795Z,37.60
2019-04-16T11:46:08.451Z,37.70
2019-04-16T11:51:04.209Z,36.40
2019-04-16T11:56:00.861Z,36.90
2019-04-16T12:01:03.008Z,35.00
2019-04-16T12:06:27.818Z,35.90
2019-04-16T12:11:26.814Z,34.90
2019-04-16T12:16:38.940Z,35.50
2019-04-16T12:21:52.367Z,34.20
2019-04-16T12:26:57.816Z,35.10
2019-04-16T12:32:04.133Z,33.70
2019-04-16T12:37:10.876Z,35.50
2019-04-16T12:42:19.334Z,35.30
2019-04-16T12:47:33.970Z,34.20
2019-04-16T12:52:51.929Z,35.80
2019-04-16T12:58:11.423Z,34.70
2019-04-16T13:03:46.472Z,33.60
2019-04-16T13:09:00.393Z,34.10
2019-04-16T13:14:16.625Z,34.30
2019-04-16T13:19:37.320Z,34.90
2019-04-16T13:24:46.370Z,35.80
2019-04-16T13:29:41.978Z,34.10
2019-04-16T13:34:37.686Z,33.60
2019-04-16T13:39:59.627Z,32.50
2019-04-16T13:45:15.739Z,34.00
2019-04-16T13:50:11.757Z,32.90
2019-04-16T13:55:29.528Z,32.70
2019-04-16T14:00:33.593Z,32.60
2019-04-16T14:05:29.186Z,33.20
2019-04-16T14:10:25.013Z,32.60
2019-04-16T14:15:31.811Z,31.80
2019-04-16T14:20:20.081Z,31.90
2019-04-16T14:25:16.626Z,31.60
2019-04-16T14:30:19.356Z,32.20
2019-04-16T14:35:32.360Z,31.00
2019-04-16T14:40:26.009Z,32.20
2019-04-16T14:45:57.542Z,32.50
2019-04-16T14:50:43.334Z,31.10
2019-04-16T14:56:00.456Z,32.70
2019-04-16T15:01:27.688Z,32.10
2019-04-16T15:06:35.072Z,32.30
2019-04-16T15:11:58.347Z,32.30
2019-04-16T15:17:17.837Z,32.90
2019-04-16T15:22:30.107Z,31.90
2019-04-16T15:27:43.374Z,32.50
2019-04-16T15:33:10.219Z,31.40
2019-04-16T15:38:23.301Z,31.60
2019-04-16T15:43:33.974Z,31.70
2019-04-16T15:48:50.661Z,31.30
2019-04-16T15:54:01.330Z,31.20
2019-04-16T15:59:05.147Z,30.50
2019-04-16T16:04:15.858Z,29.70
2019-04-16T16:09:16.452Z,28.60
2019-04-16T16:14:12.198Z,27.30
2019-04-16T16:19:11.188Z,27.10
2019-04-16T16:24:08.455Z,26.50
2019-04-16T16:29:04.490Z,26.40
2019-04-16T16:34:00.449Z,26.40
2019-04-16T16:38:56.187Z,26.20
2019-04-16T16:43:51.936Z,26.80
2019-04-16T16:48:49.899Z,27.10
2019-04-16T16:54:05.619Z,29.10
2019-04-16T16:59:06.299Z,31.90
2019-04-16T17:04:05.346Z,34.30
2019-04-16T17:09:02.013Z,36.30
2019-04-16T17:14:03.024Z,37.40
2019-04-16T17:18:59.935Z,38.90
2019-04-16T17:23:55.650Z,39.50
2019-04-16T17:28:51.384Z,41.90
2019-04-16T17:33:47.114Z,43.90
2019-04-16T17:38:42.807Z,46.00
2019-04-16T17:44:02.027Z,47.90
2019-04-16T17:49:20.122Z,49.10
2019-04-16T17:54:26.439Z,49.90
2019-04-16T17:59:40.428Z,51.10
2019-04-16T18:04:48.914Z,53.70
2019-04-16T18:10:00.090Z,55.40
2019-04-16T18:15:15.136Z,56.20
2019-04-16T18:20:30.107Z,58.90
2019-04-16T18:25:57.791Z,62.00
2019-04-16T18:31:04.984Z,65.40
2019-04-16T18:36:04.727Z,68.20
2019-04-16T18:41:18.453Z,71.90
2019-04-16T18:46:45.330Z,73.80
2019-04-16T18:51:41.511Z,77.30
2019-04-16T18:56:38.101Z,79.90
2019-04-16T19:01:35.823Z,82.30
2019-04-16T19:06:33.061Z,83.90
2019-04-16T19:11:29.491Z,85.50
2019-04-16T19:16:26.579Z,87.50
2019-04-16T19:21:22.433Z,88.80
2019-04-16T19:26:18.664Z,90.50
2019-04-16T19:31:14.672Z,91.00
2019-04-16T19:36:10.673Z,91.50
2019-04-16T19:41:07.013Z,92.30
2019-04-16T19:46:04.342Z,92.70
2019-04-16T19:51:02.020Z,93.50
2019-04-16T19:55:58.146Z,94.00
2019-04-16T20:00:57.742Z,94.40
2019-04-16T20:05:52.242Z,94.70
2019-04-16T20:10:49.133Z,95.00
2019-04-16T20:15:47.675Z,95.60
2019-04-16T20:20:44.014Z,96.00
2019-04-16T20:25:40.424Z,97.00
2019-04-16T20:30:36.227Z,97.60
2019-04-16T20:35:31.955Z,98.00
2019-04-16T20:40:30.706Z,98.40
2019-04-16T20:45:26.336Z,99.00
2019-04-16T20:50:22.711Z,99.30
2019-04-16T20:55:18.907Z,99.30
2019-04-16T21:00:16.977Z,99.60
2019-04-16T21:05:22.029Z,99.90
2019-04-16T21:10:09.944Z,99.90
2019-04-16T21:15:08.687Z,99.90
2019-04-16T21:20:04.600Z,99.90
2019-04-16T21:25:00.257Z,99.90
2019-04-16T21:29:55.962Z,99.90
2019-04-16T21:34:58.607Z,99.90
2019-04-16T21:39:56.478Z,99.90
2019-04-16T21:44:52.098Z,99.90
2019-04-16T21:49:47.756Z,99.90
2019-04-16T21:54:43.364Z,99.90
2019-04-16T21:59:39.070Z,99.90
2019-04-16T22:04:34.718Z,99.90
2019-04-16T22:09:30.361Z,99.90
2019-04-16T22:14:26.043Z,99.90
2019-04-16T22:19:21.818Z,99.90
2019-04-16T22:24:19.746Z,99.90
2019-04-16T22:29:15.643Z,99.90
2019-04-16T22:34:12.026Z,99.90
2019-04-16T22:39:32.904Z,99.90
2019-04-16T22:44:50.493Z,99.90
2019-04-16T22:49:47.243Z,99.90
2019-04-16T22:54:42.974Z,99.90
2019-04-16T22:59:40.157Z,99.90
2019-04-16T23:04:37.242Z,99.90
2019-04-16T23:09:32.876Z,99.90
2019-04-16T23:14:28.546Z,99.90
2019-04-16T23:19:24.274Z,99.90
2019-04-16T23:24:22.840Z,99.90
2019-04-16T23:29:17.319Z,99.90
2019-04-16T23:34:13.021Z,99.90
2019-04-16T23:39:08.981Z,99.90
2019-04-16T23:44:26.749Z,99.90
2019-04-16T23:49:44.549Z,99.90
2019-04-16T23:54:44.939Z,99.90
2019-04-16T23:59:58.404Z,99.90
